Khaled Ben Muhieddin — 3EJG4 — position and weather

sailwx.info

Track history (hours):
 
Tides and Currents Weather Stations Pressure Air Temp Water Temp Dewpoint Dewpoint Depression Visibility Wind Speed Wind Dir Waves Ship Positions

Khaled Ben Muhieddin

Last reported at 2017-Nov-19 23:49 UTC. Time now 2017-Nov-21 19:20 UTC.
Position N 30°05' W 013°48'.

Length 174 m; draft 10.2 m.

Type: Cargo ship. MMSI: 372511000.

Date/timePositionNaut miles runAvg speedWind from/ knotsBaromVisibWave heightAir tempDewpointWater temp
2017-Nov-19 23:49N 30°05' W 013°48'3913.0
2017-Nov-19 20:48N 29°38' W 014°21'6313.0
2017-Nov-19 15:57N 28°55' W 015°14'613.2
2017-Nov-19 15:30N 28°51' W 015°19'713.3
2017-Nov-19 15:00N 28°47' W 015°25'713.3
2017-Nov-19 14:30N 28°42' W 015°31'713.0
2017-Nov-19 14:00N 28°38' W 015°36'713.1
2017-Nov-19 13:30N 28°33' W 015°41'713.2
2017-Nov-19 13:00N 28°28' W 015°46'713.0
2017-Nov-19 12:30N 28°23' W 015°51'713.3
2017-Nov-19 12:00N 28°18' W 015°56'5513.0
2017-Nov-19 07:47N 27°37' W 016°37'1813.2
2017-Nov-19 06:26N 27°24' W 016°50'613.6
2017-Nov-19 06:00N 27°20' W 016°55'714.0
2017-Nov-19 05:31N 27°14' W 016°60'713.7
2017-Nov-19 05:00N 27°09' W 017°05'713.6
2017-Nov-19 04:30N 27°04' W 017°10'  
Track history (hours):
 
Tides and Currents Weather Stations Pressure Air Temp Water Temp Dewpoint Dewpoint Depression Visibility Wind Speed Wind Dir Waves Ship Positions

Khaled Ben Muhieddin

Last reported at 2017-Nov-19 23:49 UTC. Time now 2017-Nov-21 19:20 UTC.
Position N 30°05' W 013°48'.

Length 174 m; draft 10.2 m.

Type: Cargo ship. MMSI: 372511000.

Date/timePositionNaut miles runAvg speedWind from/ knotsBaromVisibWave heightAir tempDewpointWater temp
2017-Nov-19 23:49N 30°05' W 013°48'3913.0
2017-Nov-19 20:48N 29°38' W 014°21'6313.0
2017-Nov-19 15:57N 28°55' W 015°14'613.2
2017-Nov-19 15:30N 28°51' W 015°19'713.3
2017-Nov-19 15:00N 28°47' W 015°25'713.3
2017-Nov-19 14:30N 28°42' W 015°31'713.0
2017-Nov-19 14:00N 28°38' W 015°36'713.1
2017-Nov-19 13:30N 28°33' W 015°41'713.2
2017-Nov-19 13:00N 28°28' W 015°46'713.0
2017-Nov-19 12:30N 28°23' W 015°51'713.3
2017-Nov-19 12:00N 28°18' W 015°56'5513.0
2017-Nov-19 07:47N 27°37' W 016°37'1813.2
2017-Nov-19 06:26N 27°24' W 016°50'613.6
2017-Nov-19 06:00N 27°20' W 016°55'714.0
2017-Nov-19 05:31N 27°14' W 016°60'713.7
2017-Nov-19 05:00N 27°09' W 017°05'713.6
2017-Nov-19 04:30N 27°04' W 017°10'  

Dump ship's entire track history